sensor_id;sensor_type;location;lat;lon;timestamp;P1;durP1;ratioP1;P2;durP2;ratioP2
2175;SDS011;1094;49.902;10.876;2023-11-19T00:00:15;13.93;;;12.93;;
2175;SDS011;1094;49.902;10.876;2023-11-19T00:02:41;11.90;;;11.10;;
2175;SDS011;1094;49.902;10.876;2023-11-19T00:05:07;12.00;;;11.20;;
2175;SDS011;1094;49.902;10.876;2023-11-19T00:07:34;11.87;;;11.00;;
2175;SDS011;1094;49.902;10.876;2023-11-19T00:10:01;12.67;;;11.73;;
2175;SDS011;1094;49.902;10.876;2023-11-19T00:12:35;11.57;;;10.77;;
2175;SDS011;1094;49.902;10.876;2023-11-19T00:15:01;11.50;;;10.70;;
2175;SDS011;1094;49.902;10.876;2023-11-19T00:17:28;12.10;;;11.30;;
2175;SDS011;1094;49.902;10.876;2023-11-19T00:19:54;12.70;;;11.90;;
2175;SDS011;1094;49.902;10.876;2023-11-19T00:22:20;13.37;;;12.50;;
2175;SDS011;1094;49.902;10.876;2023-11-19T00:24:47;13.33;;;12.40;;
2175;SDS011;1094;49.902;10.876;2023-11-19T00:27:12;12.63;;;11.80;;
2175;SDS011;1094;49.902;10.876;2023-11-19T00:29:38;11.73;;;11.03;;
2175;SDS011;1094;49.902;10.876;2023-11-19T00:32:05;11.87;;;11.10;;
2175;SDS011;1094;49.902;10.876;2023-11-19T00:34:32;12.27;;;11.37;;
2175;SDS011;1094;49.902;10.876;2023-11-19T00:36:58;11.40;;;10.60;;
2175;SDS011;1094;49.902;10.876;2023-11-19T00:39:24;10.87;;;10.13;;
2175;SDS011;1094;49.902;10.876;2023-11-19T00:41:50;10.37;;;9.67;;
2175;SDS011;1094;49.902;10.876;2023-11-19T00:44:16;10.27;;;9.50;;
2175;SDS011;1094;49.902;10.876;2023-11-19T00:46:42;11.00;;;10.10;;
2175;SDS011;1094;49.902;10.876;2023-11-19T00:49:08;10.77;;;9.93;;
2175;SDS011;1094;49.902;10.876;2023-11-19T00:51:36;11.03;;;10.23;;
2175;SDS011;1094;49.902;10.876;2023-11-19T00:54:02;10.00;;;9.30;;
2175;SDS011;1094;49.902;10.876;2023-11-19T00:56:28;10.57;;;9.77;;
2175;SDS011;1094;49.902;10.876;2023-11-19T00:58:54;10.40;;;9.60;;
2175;SDS011;1094;49.902;10.876;2023-11-19T01:01:20;10.30;;;9.60;;
2175;SDS011;1094;49.902;10.876;2023-11-19T01:03:47;10.30;;;9.67;;
2175;SDS011;1094;49.902;10.876;2023-11-19T01:06:13;11.10;;;10.20;;
2175;SDS011;1094;49.902;10.876;2023-11-19T01:08:40;10.97;;;10.17;;
2175;SDS011;1094;49.902;10.876;2023-11-19T01:11:08;12.30;;;11.50;;
2175;SDS011;1094;49.902;10.876;2023-11-19T01:13:34;10.47;;;9.70;;
2175;SDS011;1094;49.902;10.876;2023-11-19T01:16:00;12.23;;;11.30;;
2175;SDS011;1094;49.902;10.876;2023-11-19T01:18:27;11.20;;;10.33;;
2175;SDS011;1094;49.902;10.876;2023-11-19T01:20:53;12.00;;;11.10;;
2175;SDS011;1094;49.902;10.876;2023-11-19T01:23:19;10.90;;;10.20;;
2175;SDS011;1094;49.902;10.876;2023-11-19T01:25:45;10.70;;;9.80;;
2175;SDS011;1094;49.902;10.876;2023-11-19T01:28:10;11.60;;;10.70;;
2175;SDS011;1094;49.902;10.876;2023-11-19T01:30:36;11.07;;;10.27;;
2175;SDS011;1094;49.902;10.876;2023-11-19T01:33:02;10.27;;;9.50;;
2175;SDS011;1094;49.902;10.876;2023-11-19T01:35:28;11.30;;;10.60;;
2175;SDS011;1094;49.902;10.876;2023-11-19T01:37:54;10.53;;;9.73;;
2175;SDS011;1094;49.902;10.876;2023-11-19T01:40:20;9.17;;;8.37;;
2175;SDS011;1094;49.902;10.876;2023-11-19T01:42:47;9.50;;;8.60;;
2175;SDS011;1094;49.902;10.876;2023-11-19T01:45:19;9.30;;;8.70;;
2175;SDS011;1094;49.902;10.876;2023-11-19T01:47:47;8.67;;;7.97;;
2175;SDS011;1094;49.902;10.876;2023-11-19T01:50:13;9.30;;;8.60;;
2175;SDS011;1094;49.902;10.876;2023-11-19T01:52:40;9.80;;;9.10;;
2175;SDS011;1094;49.902;10.876;2023-11-19T01:55:06;9.13;;;8.47;;
2175;SDS011;1094;49.902;10.876;2023-11-19T01:57:33;10.73;;;9.93;;
2175;SDS011;1094;49.902;10.876;2023-11-19T01:59:59;9.33;;;8.50;;
2175;SDS011;1094;49.902;10.876;2023-11-19T02:02:25;8.93;;;8.43;;
2175;SDS011;1094;49.902;10.876;2023-11-19T02:04:51;10.67;;;9.67;;
2175;SDS011;1094;49.902;10.876;2023-11-19T02:07:18;9.70;;;9.00;;
2175;SDS011;1094;49.902;10.876;2023-11-19T02:09:45;10.10;;;9.40;;
2175;SDS011;1094;49.902;10.876;2023-11-19T02:12:11;10.27;;;9.47;;
2175;SDS011;1094;49.902;10.876;2023-11-19T02:14:37;10.20;;;9.30;;
2175;SDS011;1094;49.902;10.876;2023-11-19T02:17:04;9.57;;;8.87;;
2175;SDS011;1094;49.902;10.876;2023-11-19T02:19:30;10.57;;;9.57;;
2175;SDS011;1094;49.902;10.876;2023-11-19T02:21:55;9.23;;;8.50;;
2175;SDS011;1094;49.902;10.876;2023-11-19T02:24:22;8.97;;;8.30;;
2175;SDS011;1094;49.902;10.876;2023-11-19T02:26:52;10.27;;;9.37;;
2175;SDS011;1094;49.902;10.876;2023-11-19T02:29:24;9.63;;;8.90;;
2175;SDS011;1094;49.902;10.876;2023-11-19T02:31:50;9.97;;;9.17;;
2175;SDS011;1094;49.902;10.876;2023-11-19T02:34:16;10.87;;;9.97;;
2175;SDS011;1094;49.902;10.876;2023-11-19T02:36:42;9.40;;;8.60;;
2175;SDS011;1094;49.902;10.876;2023-11-19T02:39:08;9.93;;;9.03;;
2175;SDS011;1094;49.902;10.876;2023-11-19T02:41:37;10.13;;;9.23;;
2175;SDS011;1094;49.902;10.876;2023-11-19T02:44:04;9.93;;;9.10;;
2175;SDS011;1094;49.902;10.876;2023-11-19T02:46:30;11.87;;;10.83;;
2175;SDS011;1094;49.902;10.876;2023-11-19T02:48:56;10.30;;;9.30;;
2175;SDS011;1094;49.902;10.876;2023-11-19T02:51:22;10.50;;;9.50;;
2175;SDS011;1094;49.902;10.876;2023-11-19T02:53:48;10.47;;;9.50;;
2175;SDS011;1094;49.902;10.876;2023-11-19T02:56:14;9.50;;;8.63;;
2175;SDS011;1094;49.902;10.876;2023-11-19T02:58:44;8.87;;;8.07;;
2175;SDS011;1094;49.902;10.876;2023-11-19T03:01:11;10.63;;;9.40;;
2175;SDS011;1094;49.902;10.876;2023-11-19T03:03:47;8.43;;;7.63;;
2175;SDS011;1094;49.902;10.876;2023-11-19T03:06:19;7.27;;;6.60;;
2175;SDS011;1094;49.902;10.876;2023-11-19T03:08:44;8.10;;;7.40;;
2175;SDS011;1094;49.902;10.876;2023-11-19T03:11:10;9.33;;;8.53;;
2175;SDS011;1094;49.902;10.876;2023-11-19T03:13:36;8.70;;;7.90;;
2175;SDS011;1094;49.902;10.876;2023-11-19T03:16:02;8.80;;;8.00;;
2175;SDS011;1094;49.902;10.876;2023-11-19T03:18:28;9.23;;;8.30;;
2175;SDS011;1094;49.902;10.876;2023-11-19T03:20:54;11.03;;;7.90;;
2175;SDS011;1094;49.902;10.876;2023-11-19T03:23:20;9.07;;;8.17;;
2175;SDS011;1094;49.902;10.876;2023-11-19T03:25:47;9.00;;;8.20;;
2175;SDS011;1094;49.902;10.876;2023-11-19T03:28:13;10.07;;;8.63;;
2175;SDS011;1094;49.902;10.876;2023-11-19T03:30:39;8.90;;;8.13;;
2175;SDS011;1094;49.902;10.876;2023-11-19T03:33:06;8.93;;;8.13;;
2175;SDS011;1094;49.902;10.876;2023-11-19T03:35:32;9.63;;;8.87;;
2175;SDS011;1094;49.902;10.876;2023-11-19T03:37:58;10.00;;;9.10;;
2175;SDS011;1094;49.902;10.876;2023-11-19T03:40:24;11.20;;;10.20;;
2175;SDS011;1094;49.902;10.876;2023-11-19T03:42:50;12.20;;;11.00;;
2175;SDS011;1094;49.902;10.876;2023-11-19T03:45:16;11.53;;;10.60;;
2175;SDS011;1094;49.902;10.876;2023-11-19T03:47:42;10.70;;;9.83;;
2175;SDS011;1094;49.902;10.876;2023-11-19T03:50:08;9.70;;;8.80;;
2175;SDS011;1094;49.902;10.876;2023-11-19T03:52:34;9.30;;;8.60;;
2175;SDS011;1094;49.902;10.876;2023-11-19T03:55:00;9.37;;;8.63;;
2175;SDS011;1094;49.902;10.876;2023-11-19T03:57:28;10.27;;;9.43;;
2175;SDS011;1094;49.902;10.876;2023-11-19T03:59:54;8.93;;;8.23;;
2175;SDS011;1094;49.902;10.876;2023-11-19T04:02:20;9.93;;;9.13;;
2175;SDS011;1094;49.902;10.876;2023-11-19T04:04:46;9.50;;;8.60;;
2175;SDS011;1094;49.902;10.876;2023-11-19T04:07:13;10.20;;;9.30;;
2175;SDS011;1094;49.902;10.876;2023-11-19T04:09:40;10.03;;;9.23;;
2175;SDS011;1094;49.902;10.876;2023-11-19T04:12:06;10.60;;;9.70;;
2175;SDS011;1094;49.902;10.876;2023-11-19T04:14:33;9.87;;;9.07;;
2175;SDS011;1094;49.902;10.876;2023-11-19T04:16:59;10.20;;;9.23;;
2175;SDS011;1094;49.902;10.876;2023-11-19T04:19:24;9.47;;;8.57;;
2175;SDS011;1094;49.902;10.876;2023-11-19T04:21:50;10.40;;;9.47;;
2175;SDS011;1094;49.902;10.876;2023-11-19T04:24:17;10.63;;;9.60;;
2175;SDS011;1094;49.902;10.876;2023-11-19T04:26:44;9.83;;;9.03;;
2175;SDS011;1094;49.902;10.876;2023-11-19T04:29:14;10.93;;;9.83;;
2175;SDS011;1094;49.902;10.876;2023-11-19T04:31:42;10.70;;;9.70;;
2175;SDS011;1094;49.902;10.876;2023-11-19T04:34:08;10.93;;;10.00;;
2175;SDS011;1094;49.902;10.876;2023-11-19T04:36:34;10.60;;;9.60;;
2175;SDS011;1094;49.902;10.876;2023-11-19T04:39:00;12.17;;;11.07;;
2175;SDS011;1094;49.902;10.876;2023-11-19T04:41:26;11.63;;;10.53;;
2175;SDS011;1094;49.902;10.876;2023-11-19T04:43:53;11.90;;;10.87;;
2175;SDS011;1094;49.902;10.876;2023-11-19T04:46:19;12.93;;;11.83;;
2175;SDS011;1094;49.902;10.876;2023-11-19T04:48:45;11.53;;;10.63;;
2175;SDS011;1094;49.902;10.876;2023-11-19T04:51:11;12.47;;;11.20;;
2175;SDS011;1094;49.902;10.876;2023-11-19T04:53:37;11.90;;;10.90;;
2175;SDS011;1094;49.902;10.876;2023-11-19T04:56:09;13.07;;;11.93;;
2175;SDS011;1094;49.902;10.876;2023-11-19T04:58:35;12.90;;;11.70;;
2175;SDS011;1094;49.902;10.876;2023-11-19T05:01:02;12.67;;;11.63;;
2175;SDS011;1094;49.902;10.876;2023-11-19T05:03:28;14.00;;;12.77;;
2175;SDS011;1094;49.902;10.876;2023-11-19T05:05:54;14.57;;;13.07;;
2175;SDS011;1094;49.902;10.876;2023-11-19T05:08:20;13.10;;;11.90;;
2175;SDS011;1094;49.902;10.876;2023-11-19T05:10:46;13.10;;;11.80;;
2175;SDS011;1094;49.902;10.876;2023-11-19T05:13:12;13.63;;;12.40;;
2175;SDS011;1094;49.902;10.876;2023-11-19T05:15:38;13.43;;;12.20;;
2175;SDS011;1094;49.902;10.876;2023-11-19T05:18:04;13.90;;;12.60;;
2175;SDS011;1094;49.902;10.876;2023-11-19T05:20:30;13.33;;;12.10;;
2175;SDS011;1094;49.902;10.876;2023-11-19T05:22:56;14.23;;;12.73;;
2175;SDS011;1094;49.902;10.876;2023-11-19T05:25:22;14.47;;;13.17;;
2175;SDS011;1094;49.902;10.876;2023-11-19T05:27:48;14.53;;;12.23;;
2175;SDS011;1094;49.902;10.876;2023-11-19T05:30:13;14.60;;;13.10;;
2175;SDS011;1094;49.902;10.876;2023-11-19T05:32:40;13.30;;;12.00;;
2175;SDS011;1094;49.902;10.876;2023-11-19T05:35:06;14.73;;;12.77;;
2175;SDS011;1094;49.902;10.876;2023-11-19T05:37:33;12.90;;;11.73;;
2175;SDS011;1094;49.902;10.876;2023-11-19T05:39:59;15.63;;;14.10;;
2175;SDS011;1094;49.902;10.876;2023-11-19T05:42:28;13.93;;;12.63;;
2175;SDS011;1094;49.902;10.876;2023-11-19T05:44:54;14.47;;;13.00;;
2175;SDS011;1094;49.902;10.876;2023-11-19T05:47:20;14.70;;;13.40;;
2175;SDS011;1094;49.902;10.876;2023-11-19T05:49:45;15.20;;;13.70;;
2175;SDS011;1094;49.902;10.876;2023-11-19T05:52:11;13.93;;;12.63;;
2175;SDS011;1094;49.902;10.876;2023-11-19T05:54:38;17.50;;;14.17;;
2175;SDS011;1094;49.902;10.876;2023-11-19T05:57:04;14.53;;;13.13;;
2175;SDS011;1094;49.902;10.876;2023-11-19T05:59:30;16.47;;;14.83;;
2175;SDS011;1094;49.902;10.876;2023-11-19T06:01:58;15.93;;;14.43;;
2175;SDS011;1094;49.902;10.876;2023-11-19T06:04:23;15.23;;;13.83;;
2175;SDS011;1094;49.902;10.876;2023-11-19T06:06:49;16.10;;;14.50;;
2175;SDS011;1094;49.902;10.876;2023-11-19T06:09:15;18.90;;;15.00;;
2175;SDS011;1094;49.902;10.876;2023-11-19T06:11:43;15.00;;;13.60;;
2175;SDS011;1094;49.902;10.876;2023-11-19T06:14:09;14.67;;;13.30;;
2175;SDS011;1094;49.902;10.876;2023-11-19T06:16:36;15.47;;;14.17;;
2175;SDS011;1094;49.902;10.876;2023-11-19T06:19:04;17.33;;;15.63;;
2175;SDS011;1094;49.902;10.876;2023-11-19T06:21:30;16.73;;;15.30;;
2175;SDS011;1094;49.902;10.876;2023-11-19T06:23:56;19.00;;;15.80;;
2175;SDS011;1094;49.902;10.876;2023-11-19T06:26:23;15.90;;;14.30;;
2175;SDS011;1094;49.902;10.876;2023-11-19T06:28:49;16.37;;;14.60;;
2175;SDS011;1094;49.902;10.876;2023-11-19T06:31:15;16.67;;;15.00;;
2175;SDS011;1094;49.902;10.876;2023-11-19T06:33:41;15.80;;;14.27;;
2175;SDS011;1094;49.902;10.876;2023-11-19T06:36:07;20.13;;;14.90;;
2175;SDS011;1094;49.902;10.876;2023-11-19T06:38:34;18.27;;;15.47;;
2175;SDS011;1094;49.902;10.876;2023-11-19T06:41:00;15.17;;;13.70;;
2175;SDS011;1094;49.902;10.876;2023-11-19T06:43:26;16.57;;;14.90;;
2175;SDS011;1094;49.902;10.876;2023-11-19T06:45:53;15.87;;;14.07;;
2175;SDS011;1094;49.902;10.876;2023-11-19T06:48:19;14.80;;;13.50;;
2175;SDS011;1094;49.902;10.876;2023-11-19T06:50:45;15.13;;;13.53;;
2175;SDS011;1094;49.902;10.876;2023-11-19T06:53:11;14.50;;;13.00;;
2175;SDS011;1094;49.902;10.876;2023-11-19T06:55:37;14.17;;;12.90;;
2175;SDS011;1094;49.902;10.876;2023-11-19T06:58:03;14.20;;;12.93;;
2175;SDS011;1094;49.902;10.876;2023-11-19T07:00:29;14.60;;;13.10;;
2175;SDS011;1094;49.902;10.876;2023-11-19T07:02:57;16.00;;;14.30;;
2175;SDS011;1094;49.902;10.876;2023-11-19T07:05:23;18.57;;;14.60;;
2175;SDS011;1094;49.902;10.876;2023-11-19T07:07:49;15.50;;;13.60;;
2175;SDS011;1094;49.902;10.876;2023-11-19T07:10:15;15.67;;;14.17;;
2175;SDS011;1094;49.902;10.876;2023-11-19T07:12:41;18.30;;;14.70;;
2175;SDS011;1094;49.902;10.876;2023-11-19T07:15:07;14.87;;;13.40;;
2175;SDS011;1094;49.902;10.876;2023-11-19T07:17:38;16.63;;;14.97;;
2175;SDS011;1094;49.902;10.876;2023-11-19T07:20:05;16.17;;;14.50;;
2175;SDS011;1094;49.902;10.876;2023-11-19T07:22:31;16.83;;;15.13;;
2175;SDS011;1094;49.902;10.876;2023-11-19T07:24:57;16.00;;;14.40;;
2175;SDS011;1094;49.902;10.876;2023-11-19T07:27:23;15.30;;;13.70;;
2175;SDS011;1094;49.902;10.876;2023-11-19T07:29:49;15.87;;;14.27;;
2175;SDS011;1094;49.902;10.876;2023-11-19T07:32:16;14.37;;;12.83;;
2175;SDS011;1094;49.902;10.876;2023-11-19T07:34:42;13.70;;;12.30;;
2175;SDS011;1094;49.902;10.876;2023-11-19T07:37:08;14.13;;;12.83;;
2175;SDS011;1094;49.902;10.876;2023-11-19T07:39:34;14.57;;;13.17;;
2175;SDS011;1094;49.902;10.876;2023-11-19T07:42:01;16.07;;;14.40;;
2175;SDS011;1094;49.902;10.876;2023-11-19T07:44:27;15.40;;;13.80;;
2175;SDS011;1094;49.902;10.876;2023-11-19T07:46:53;15.47;;;14.07;;
2175;SDS011;1094;49.902;10.876;2023-11-19T07:49:19;14.73;;;13.30;;
2175;SDS011;1094;49.902;10.876;2023-11-19T07:51:45;15.73;;;14.43;;
2175;SDS011;1094;49.902;10.876;2023-11-19T07:54:11;14.43;;;13.13;;
2175;SDS011;1094;49.902;10.876;2023-11-19T07:56:37;13.07;;;11.87;;
2175;SDS011;1094;49.902;10.876;2023-11-19T07:59:03;13.93;;;12.63;;
2175;SDS011;1094;49.902;10.876;2023-11-19T08:01:29;15.80;;;14.40;;
2175;SDS011;1094;49.902;10.876;2023-11-19T08:03:54;15.80;;;14.40;;
2175;SDS011;1094;49.902;10.876;2023-11-19T08:06:21;15.13;;;13.83;;
2175;SDS011;1094;49.902;10.876;2023-11-19T08:08:47;15.40;;;14.10;;
2175;SDS011;1094;49.902;10.876;2023-11-19T08:11:13;13.10;;;12.20;;
2175;SDS011;1094;49.902;10.876;2023-11-19T08:13:40;10.10;;;9.10;;
2175;SDS011;1094;49.902;10.876;2023-11-19T08:16:07;9.80;;;8.97;;
2175;SDS011;1094;49.902;10.876;2023-11-19T08:18:33;7.77;;;7.17;;
2175;SDS011;1094;49.902;10.876;2023-11-19T08:20:58;6.87;;;6.17;;
2175;SDS011;1094;49.902;10.876;2023-11-19T08:23:25;6.90;;;6.50;;
2175;SDS011;1094;49.902;10.876;2023-11-19T08:25:53;7.60;;;6.97;;
2175;SDS011;1094;49.902;10.876;2023-11-19T08:28:19;7.53;;;6.90;;
2175;SDS011;1094;49.902;10.876;2023-11-19T08:30:45;7.70;;;6.90;;
2175;SDS011;1094;49.902;10.876;2023-11-19T08:33:11;7.60;;;7.10;;
2175;SDS011;1094;49.902;10.876;2023-11-19T08:35:37;7.03;;;6.63;;
2175;SDS011;1094;49.902;10.876;2023-11-19T08:38:03;7.50;;;7.00;;
2175;SDS011;1094;49.902;10.876;2023-11-19T08:40:29;7.10;;;6.67;;
2175;SDS011;1094;49.902;10.876;2023-11-19T08:42:55;7.27;;;6.87;;
2175;SDS011;1094;49.902;10.876;2023-11-19T08:45:21;6.90;;;6.50;;
2175;SDS011;1094;49.902;10.876;2023-11-19T08:47:48;7.10;;;6.80;;
2175;SDS011;1094;49.902;10.876;2023-11-19T08:50:14;6.90;;;6.60;;
2175;SDS011;1094;49.902;10.876;2023-11-19T08:52:40;6.90;;;6.50;;
2175;SDS011;1094;49.902;10.876;2023-11-19T08:55:06;7.00;;;6.60;;
2175;SDS011;1094;49.902;10.876;2023-11-19T08:57:34;6.97;;;6.57;;
2175;SDS011;1094;49.902;10.876;2023-11-19T09:00:00;7.00;;;6.70;;
2175;SDS011;1094;49.902;10.876;2023-11-19T09:02:27;8.33;;;7.93;;
2175;SDS011;1094;49.902;10.876;2023-11-19T09:04:53;8.43;;;8.03;;
2175;SDS011;1094;49.902;10.876;2023-11-19T09:07:19;8.30;;;8.00;;
2175;SDS011;1094;49.902;10.876;2023-11-19T09:09:46;7.80;;;7.50;;
2175;SDS011;1094;49.902;10.876;2023-11-19T09:12:12;8.20;;;7.87;;
2175;SDS011;1094;49.902;10.876;2023-11-19T09:14:39;8.60;;;8.20;;
2175;SDS011;1094;49.902;10.876;2023-11-19T09:17:04;9.77;;;9.37;;
2175;SDS011;1094;49.902;10.876;2023-11-19T09:19:32;9.20;;;8.90;;
2175;SDS011;1094;49.902;10.876;2023-11-19T09:21:59;9.63;;;9.13;;
2175;SDS011;1094;49.902;10.876;2023-11-19T09:24:25;11.27;;;10.77;;
2175;SDS011;1094;49.902;10.876;2023-11-19T09:26:51;10.73;;;10.23;;
2175;SDS011;1094;49.902;10.876;2023-11-19T09:29:19;11.37;;;10.90;;
2175;SDS011;1094;49.902;10.876;2023-11-19T09:31:46;13.03;;;12.53;;
2175;SDS011;1094;49.902;10.876;2023-11-19T09:34:12;14.53;;;13.93;;
2175;SDS011;1094;49.902;10.876;2023-11-19T09:36:38;15.67;;;14.93;;
2175;SDS011;1094;49.902;10.876;2023-11-19T09:39:08;17.20;;;16.30;;
2175;SDS011;1094;49.902;10.876;2023-11-19T09:41:34;16.50;;;15.80;;
2175;SDS011;1094;49.902;10.876;2023-11-19T09:44:00;16.40;;;15.60;;
2175;SDS011;1094;49.902;10.876;2023-11-19T09:46:26;16.90;;;16.13;;
2175;SDS011;1094;49.902;10.876;2023-11-19T09:48:53;16.90;;;16.20;;
2175;SDS011;1094;49.902;10.876;2023-11-19T09:51:19;17.30;;;16.40;;
2175;SDS011;1094;49.902;10.876;2023-11-19T09:53:47;16.87;;;16.17;;
2175;SDS011;1094;49.902;10.876;2023-11-19T09:56:14;17.10;;;16.30;;
2175;SDS011;1094;49.902;10.876;2023-11-19T09:58:41;16.97;;;16.20;;
2175;SDS011;1094;49.902;10.876;2023-11-19T10:01:07;17.20;;;16.50;;
2175;SDS011;1094;49.902;10.876;2023-11-19T10:03:37;17.07;;;16.30;;
2175;SDS011;1094;49.902;10.876;2023-11-19T10:06:06;16.80;;;16.10;;
2175;SDS011;1094;49.902;10.876;2023-11-19T10:08:32;17.67;;;16.87;;
2175;SDS011;1094;49.902;10.876;2023-11-19T10:10:58;16.83;;;16.03;;
2175;SDS011;1094;49.902;10.876;2023-11-19T10:13:27;17.50;;;16.70;;
2175;SDS011;1094;49.902;10.876;2023-11-19T10:15:54;17.40;;;16.60;;
2175;SDS011;1094;49.902;10.876;2023-11-19T10:18:25;17.30;;;16.60;;
2175;SDS011;1094;49.902;10.876;2023-11-19T10:20:51;17.23;;;16.43;;
2175;SDS011;1094;49.902;10.876;2023-11-19T10:23:17;17.23;;;16.43;;
2175;SDS011;1094;49.902;10.876;2023-11-19T10:25:44;17.60;;;16.50;;
2175;SDS011;1094;49.902;10.876;2023-11-19T10:28:10;16.90;;;16.10;;
2175;SDS011;1094;49.902;10.876;2023-11-19T10:30:36;17.67;;;16.70;;
2175;SDS011;1094;49.902;10.876;2023-11-19T10:33:02;18.13;;;17.20;;
2175;SDS011;1094;49.902;10.876;2023-11-19T10:35:29;17.50;;;16.60;;
2175;SDS011;1094;49.902;10.876;2023-11-19T10:37:55;18.40;;;17.40;;
2175;SDS011;1094;49.902;10.876;2023-11-19T10:40:21;18.07;;;17.07;;
2175;SDS011;1094;49.902;10.876;2023-11-19T10:42:47;18.30;;;17.27;;
2175;SDS011;1094;49.902;10.876;2023-11-19T10:45:22;18.17;;;17.27;;
2175;SDS011;1094;49.902;10.876;2023-11-19T10:47:49;18.67;;;17.57;;
2175;SDS011;1094;49.902;10.876;2023-11-19T10:50:17;17.97;;;17.07;;
2175;SDS011;1094;49.902;10.876;2023-11-19T10:52:43;18.37;;;17.30;;
2175;SDS011;1094;49.902;10.876;2023-11-19T10:55:10;18.30;;;17.40;;
2175;SDS011;1094;49.902;10.876;2023-11-19T10:57:40;18.37;;;17.10;;
2175;SDS011;1094;49.902;10.876;2023-11-19T11:00:09;18.43;;;17.37;;
2175;SDS011;1094;49.902;10.876;2023-11-19T11:02:39;17.80;;;16.80;;
2175;SDS011;1094;49.902;10.876;2023-11-19T11:05:07;18.43;;;17.33;;
2175;SDS011;1094;49.902;10.876;2023-11-19T11:07:33;17.80;;;16.80;;
2175;SDS011;1094;49.902;10.876;2023-11-19T11:09:59;17.43;;;16.53;;
2175;SDS011;1094;49.902;10.876;2023-11-19T11:12:28;18.30;;;17.30;;
2175;SDS011;1094;49.902;10.876;2023-11-19T11:14:54;18.70;;;17.70;;
2175;SDS011;1094;49.902;10.876;2023-11-19T11:17:21;18.47;;;17.50;;
2175;SDS011;1094;49.902;10.876;2023-11-19T11:19:49;19.10;;;17.97;;
2175;SDS011;1094;49.902;10.876;2023-11-19T11:22:16;19.53;;;18.40;;
2175;SDS011;1094;49.902;10.876;2023-11-19T11:25:01;18.47;;;17.47;;
2175;SDS011;1094;49.902;10.876;2023-11-19T11:27:38;19.40;;;18.40;;
2175;SDS011;1094;49.902;10.876;2023-11-19T11:32:34;19.17;;;18.17;;
2175;SDS011;1094;49.902;10.876;2023-11-19T11:37:49;19.00;;;17.80;;
2175;SDS011;1094;49.902;10.876;2023-11-19T11:40:17;19.37;;;18.20;;
2175;SDS011;1094;49.902;10.876;2023-11-19T11:42:46;20.10;;;18.33;;
2175;SDS011;1094;49.902;10.876;2023-11-19T11:45:12;19.00;;;18.00;;
2175;SDS011;1094;49.902;10.876;2023-11-19T11:50:17;18.77;;;17.67;;
2175;SDS011;1094;49.902;10.876;2023-11-19T11:55:34;19.33;;;18.03;;
2175;SDS011;1094;49.902;10.876;2023-11-19T11:58:01;19.00;;;18.00;;
2175;SDS011;1094;49.902;10.876;2023-11-19T12:00:29;19.80;;;18.53;;
2175;SDS011;1094;49.902;10.876;2023-11-19T12:02:55;19.03;;;17.73;;
2175;SDS011;1094;49.902;10.876;2023-11-19T12:05:22;20.07;;;18.50;;
2175;SDS011;1094;49.902;10.876;2023-11-19T12:07:54;18.67;;;17.67;;
2175;SDS011;1094;49.902;10.876;2023-11-19T12:10:20;19.47;;;18.10;;
2175;SDS011;1094;49.902;10.876;2023-11-19T12:12:49;19.23;;;18.13;;
2175;SDS011;1094;49.902;10.876;2023-11-19T12:15:18;18.30;;;17.20;;
2175;SDS011;1094;49.902;10.876;2023-11-19T12:17:50;18.10;;;17.20;;
2175;SDS011;1094;49.902;10.876;2023-11-19T12:20:24;18.17;;;17.27;;
2175;SDS011;1094;49.902;10.876;2023-11-19T12:22:51;18.90;;;17.70;;
2175;SDS011;1094;49.902;10.876;2023-11-19T12:25:17;19.30;;;18.20;;
2175;SDS011;1094;49.902;10.876;2023-11-19T12:27:45;19.27;;;18.10;;
2175;SDS011;1094;49.902;10.876;2023-11-19T12:30:12;19.93;;;18.37;;
2175;SDS011;1094;49.902;10.876;2023-11-19T12:32:41;19.17;;;17.97;;
2175;SDS011;1094;49.902;10.876;2023-11-19T12:35:08;19.30;;;18.03;;
2175;SDS011;1094;49.902;10.876;2023-11-19T12:37:44;19.27;;;18.10;;
2175;SDS011;1094;49.902;10.876;2023-11-19T12:40:17;19.60;;;18.60;;
2175;SDS011;1094;49.902;10.876;2023-11-19T12:42:47;19.40;;;18.20;;
2175;SDS011;1094;49.902;10.876;2023-11-19T12:45:13;19.97;;;18.47;;
2175;SDS011;1094;49.902;10.876;2023-11-19T12:47:41;19.80;;;18.70;;
2175;SDS011;1094;49.902;10.876;2023-11-19T12:50:07;20.03;;;18.73;;
2175;SDS011;1094;49.902;10.876;2023-11-19T12:52:34;19.43;;;18.30;;
2175;SDS011;1094;49.902;10.876;2023-11-19T12:55:00;19.40;;;18.30;;
2175;SDS011;1094;49.902;10.876;2023-11-19T12:57:42;19.43;;;18.23;;
2175;SDS011;1094;49.902;10.876;2023-11-19T13:00:17;19.50;;;18.37;;
2175;SDS011;1094;49.902;10.876;2023-11-19T13:02:48;19.87;;;18.77;;
2175;SDS011;1094;49.902;10.876;2023-11-19T13:07:46;21.20;;;19.50;;
2175;SDS011;1094;49.902;10.876;2023-11-19T13:10:12;20.00;;;18.90;;
2175;SDS011;1094;49.902;10.876;2023-11-19T13:12:38;20.53;;;19.07;;
2175;SDS011;1094;49.902;10.876;2023-11-19T13:15:05;21.27;;;19.50;;
2175;SDS011;1094;49.902;10.876;2023-11-19T13:17:31;20.20;;;18.83;;
2175;SDS011;1094;49.902;10.876;2023-11-19T13:19:57;19.67;;;18.67;;
2175;SDS011;1094;49.902;10.876;2023-11-19T13:22:23;19.70;;;18.40;;
2175;SDS011;1094;49.902;10.876;2023-11-19T13:24:49;20.17;;;18.77;;
2175;SDS011;1094;49.902;10.876;2023-11-19T13:27:14;18.80;;;17.90;;
2175;SDS011;1094;49.902;10.876;2023-11-19T13:29:40;19.67;;;18.30;;
2175;SDS011;1094;49.902;10.876;2023-11-19T13:32:06;19.87;;;18.57;;
2175;SDS011;1094;49.902;10.876;2023-11-19T13:34:33;19.07;;;17.90;;
2175;SDS011;1094;49.902;10.876;2023-11-19T13:36:59;18.93;;;17.80;;
2175;SDS011;1094;49.902;10.876;2023-11-19T13:39:25;19.53;;;18.13;;
2175;SDS011;1094;49.902;10.876;2023-11-19T13:41:51;18.80;;;17.80;;
2175;SDS011;1094;49.902;10.876;2023-11-19T13:44:17;19.40;;;18.30;;
2175;SDS011;1094;49.902;10.876;2023-11-19T13:46:44;19.73;;;18.40;;
2175;SDS011;1094;49.902;10.876;2023-11-19T13:49:11;19.47;;;18.23;;
2175;SDS011;1094;49.902;10.876;2023-11-19T13:51:37;19.30;;;18.30;;
2175;SDS011;1094;49.902;10.876;2023-11-19T13:54:03;20.00;;;18.77;;
2175;SDS011;1094;49.902;10.876;2023-11-19T13:56:29;20.63;;;19.23;;
2175;SDS011;1094;49.902;10.876;2023-11-19T13:58:54;20.40;;;18.87;;
2175;SDS011;1094;49.902;10.876;2023-11-19T14:01:20;19.97;;;18.57;;
2175;SDS011;1094;49.902;10.876;2023-11-19T14:03:46;19.77;;;18.67;;
2175;SDS011;1094;49.902;10.876;2023-11-19T14:06:12;19.10;;;18.00;;
2175;SDS011;1094;49.902;10.876;2023-11-19T14:08:39;19.07;;;17.77;;
2175;SDS011;1094;49.902;10.876;2023-11-19T14:11:05;19.57;;;18.33;;
2175;SDS011;1094;49.902;10.876;2023-11-19T14:13:31;19.27;;;18.17;;
2175;SDS011;1094;49.902;10.876;2023-11-19T14:15:57;19.53;;;18.20;;
2175;SDS011;1094;49.902;10.876;2023-11-19T14:18:23;19.90;;;18.43;;
2175;SDS011;1094;49.902;10.876;2023-11-19T14:20:49;19.30;;;18.20;;
2175;SDS011;1094;49.902;10.876;2023-11-19T14:23:15;19.23;;;18.03;;
2175;SDS011;1094;49.902;10.876;2023-11-19T14:25:42;20.53;;;19.00;;
2175;SDS011;1094;49.902;10.876;2023-11-19T14:28:08;19.37;;;18.20;;
2175;SDS011;1094;49.902;10.876;2023-11-19T14:30:34;19.33;;;18.33;;
2175;SDS011;1094;49.902;10.876;2023-11-19T14:33:00;19.30;;;18.20;;
2175;SDS011;1094;49.902;10.876;2023-11-19T14:35:26;19.37;;;18.13;;
2175;SDS011;1094;49.902;10.876;2023-11-19T14:37:52;19.60;;;18.20;;
2175;SDS011;1094;49.902;10.876;2023-11-19T14:40:18;20.10;;;18.70;;
2175;SDS011;1094;49.902;10.876;2023-11-19T14:42:44;19.23;;;18.23;;
2175;SDS011;1094;49.902;10.876;2023-11-19T14:45:10;19.37;;;18.23;;
2175;SDS011;1094;49.902;10.876;2023-11-19T14:47:37;19.60;;;18.40;;
2175;SDS011;1094;49.902;10.876;2023-11-19T14:50:03;19.40;;;18.30;;